16°C Temp
13°C Dewpoint
83% Humidity
Temperature
3 KM/H
2 MPH
2 KTS
Calm
Due North

Wind Speed
Clear
Conditions
Pressure 1020.92 (hPa) - 30.15 (in)
Visibility 6.2 (mi) - 10.0 (km)

Current Conditions
LIRQ
Location 70(km)
Metar :LIRQ 170850Z VRB02KT CAVOK 16/13 Q1021
Thu 17th October 09:50 am

Airport
  Metar Aviation API Data Provided by https://www.checkwx.com/ PHP scripts by weather34.com ©2019